Time;durP1;ratioP1;P1;durP2;ratioP2;P2;SDS_P1;SDS_P2;PMS_P1;PMS_P2;Temp;Humidity;BMP_temperature;BMP_pressure;BME280_temperature;BME280_humidity;BME280_pressure;Samples;Min_cycle;Max_cycle;Signal;HPM_P1;HPM_P2
2022/01/09 00:00:26;;;;;;;81.32;41.90;;;;;;;-2.26;93.79;99900.47;5074592;28;20373;-69
2022/01/09 00:02:52;;;;;;;72.25;35.70;;;;;;;-2.42;94.10;99887.97;5068059;28;20020;-70
2022/01/09 00:05:18;;;;;;;69.85;35.95;;;;;;;-2.33;94.00;99906.91;5077796;28;20497;-70
2022/01/09 00:07:44;;;;;;;67.60;36.08;;;;;;;-2.50;93.46;99892.72;5080210;28;20388;-69
2022/01/09 00:10:10;;;;;;;67.38;35.83;;;;;;;-2.54;93.19;99896.34;5072344;28;20033;-69
2022/01/09 00:12:36;;;;;;;66.57;33.97;;;;;;;-2.58;92.83;99891.31;5074036;28;20043;-69
2022/01/09 00:15:03;;;;;;;70.32;36.42;;;;;;;-2.57;92.86;99899.13;5083457;28;20032;-70
2022/01/09 00:17:29;;;;;;;69.50;34.17;;;;;;;-2.61;92.53;99894.91;5064641;28;20067;-70
2022/01/09 00:19:54;;;;;;;68.55;34.65;;;;;;;-2.64;92.12;99895.03;5072471;28;20432;-70
2022/01/09 00:22:29;;;;;;;62.72;33.75;;;;;;;-2.72;92.20;99889.25;5066884;28;20111;-70
2022/01/09 00:24:55;;;;;;;68.70;34.13;;;;;;;-2.79;92.93;99885.19;5074480;28;20357;-70
2022/01/09 00:27:20;;;;;;;67.78;33.75;;;;;;;-2.78;93.36;99886.88;5078232;28;20031;-70
2022/01/09 00:29:45;;;;;;;69.35;33.35;;;;;;;-2.89;93.78;99868.13;5079364;28;20028;-70
2022/01/09 00:32:11;;;;;;;70.68;32.67;;;;;;;-2.83;93.53;99874.88;5076441;28;20024;-70
2022/01/09 00:34:36;;;;;;;64.70;32.25;;;;;;;-2.86;93.25;99868.00;5079190;28;20030;-69
2022/01/09 00:37:02;;;;;;;66.60;34.13;;;;;;;-2.81;94.07;99870.41;5076207;28;20028;-69
2022/01/09 00:39:27;;;;;;;72.80;33.22;;;;;;;-2.79;95.11;99879.06;5072175;28;20074;-69
2022/01/09 00:41:53;;;;;;;69.55;33.70;;;;;;;-2.82;96.11;99881.81;5074010;28;20519;-69
2022/01/09 00:44:18;;;;;;;72.97;37.15;;;;;;;-2.87;96.15;99873.31;5080657;28;20012;-69
2022/01/09 00:46:44;;;;;;;77.57;36.75;;;;;;;-2.84;96.40;99881.06;5080152;28;20662;-70
2022/01/09 00:49:09;;;;;;;78.38;39.45;;;;;;;-2.87;96.97;99878.56;5076860;28;20029;-66
2022/01/09 00:51:35;;;;;;;80.72;39.42;;;;;;;-2.88;97.30;99875.06;5077396;28;20106;-66
2022/01/09 00:54:00;;;;;;;70.15;36.45;;;;;;;-2.91;97.09;99875.19;5054423;28;20027;-66
2022/01/09 00:56:25;;;;;;;65.53;34.47;;;;;;;-2.94;96.71;99875.31;5075112;28;20521;-66
2022/01/09 00:58:51;;;;;;;69.38;35.05;;;;;;;-2.93;97.20;99868.31;5072582;28;20024;-66
2022/01/09 01:01:16;;;;;;;68.03;34.22;;;;;;;-2.99;96.89;99860.69;5072829;28;20505;-66
2022/01/09 01:03:42;;;;;;;65.32;35.17;;;;;;;-3.13;96.94;99847.28;5077598;28;20065;-66
2022/01/09 01:06:07;;;;;;;75.32;33.78;;;;;;;-3.05;96.58;99855.69;5072792;28;20062;-66
2022/01/09 01:08:32;;;;;;;61.08;32.20;;;;;;;-3.10;96.51;99855.84;5071380;28;20075;-66
2022/01/09 01:10:58;;;;;;;61.58;31.30;;;;;;;-3.14;96.93;99853.41;5072158;28;20039;-66
2022/01/09 01:13:23;;;;;;;63.40;31.63;;;;;;;-3.34;96.57;99819.28;5078590;28;20119;-66
2022/01/09 01:15:49;;;;;;;67.43;32.75;;;;;;;-3.37;96.23;99822.88;5075831;28;20034;-66
2022/01/09 01:18:14;;;;;;;62.70;31.90;;;;;;;-3.40;95.81;99830.00;5073305;28;20031;-66
2022/01/09 01:20:41;;;;;;;64.65;31.45;;;;;;;-3.34;95.90;99833.25;5072346;28;20025;-66
2022/01/09 01:23:07;;;;;;;68.60;30.52;;;;;;;-3.50;94.98;99805.06;5076502;28;20027;-66
2022/01/09 01:25:34;;;;;;;68.43;32.50;;;;;;;-3.42;94.82;99826.59;5061235;28;20115;-66
2022/01/09 01:28:02;;;;;;;62.20;31.63;;;;;;;-3.45;95.48;99817.06;5073395;28;20041;-67
2022/01/09 01:30:28;;;;;;;65.07;32.42;;;;;;;-3.59;95.70;99800.19;5074828;28;20431;-66
2022/01/09 01:32:53;;;;;;;61.40;30.40;;;;;;;-3.62;94.77;99801.16;5079557;28;20052;-66
2022/01/09 01:35:21;;;;;;;64.20;29.35;;;;;;;-3.69;94.24;99793.59;5074373;28;20062;-66
2022/01/09 01:37:46;;;;;;;56.45;30.30;;;;;;;-3.72;94.00;99791.97;5075860;28;20019;-66
2022/01/09 01:40:16;;;;;;;62.55;30.58;;;;;;;-3.75;92.91;99785.97;5076308;28;20036;-66
2022/01/09 01:42:42;;;;;;;55.17;28.75;;;;;;;-3.95;92.10;99763.19;5058169;28;20032;-67
2022/01/09 01:45:09;;;;;;;57.95;29.27;;;;;;;-3.82;91.14;99785.38;5074083;28;20142;-66
2022/01/09 01:47:35;;;;;;;54.45;28.73;;;;;;;-3.89;91.49;99781.28;5076690;28;20480;-66
2022/01/09 01:50:05;;;;;;;57.40;29.35;;;;;;;-3.91;90.18;99777.88;5063792;28;20043;-66
2022/01/09 01:52:36;;;;;;;56.53;29.45;;;;;;;-3.98;90.42;99771.16;5081066;28;20045;-66
2022/01/09 01:55:04;;;;;;;53.13;28.08;;;;;;;-3.99;89.45;99776.44;5077073;28;20117;-66
2022/01/09 01:57:31;;;;;;;59.28;30.27;;;;;;;-4.06;89.74;99767.13;5078677;28;20036;-66
2022/01/09 01:59:56;;;;;;;58.58;28.63;;;;;;;-4.12;89.03;99768.22;5076757;28;20132;-66
2022/01/09 02:02:23;;;;;;;55.45;28.15;;;;;;;-4.15;88.92;99763.09;5074175;28;20115;-66
2022/01/09 02:04:49;;;;;;;60.40;27.63;;;;;;;-4.28;88.68;99747.91;5079655;28;20043;-66
2022/01/09 02:07:14;;;;;;;59.60;30.67;;;;;;;-4.34;89.01;99738.50;5077832;28;20396;-66
2022/01/09 02:09:40;;;;;;;61.50;29.98;;;;;;;-4.28;90.06;99750.50;5079319;28;20089;-66
2022/01/09 02:12:06;;;;;;;60.40;30.50;;;;;;;-4.38;91.02;99736.94;5065202;28;20020;-66
2022/01/09 02:14:34;;;;;;;65.25;32.10;;;;;;;-4.31;92.14;99741.03;5081025;28;20434;-66
2022/01/09 02:17:04;;;;;;;63.72;32.55;;;;;;;-4.18;93.31;99768.44;5076324;28;20040;-66
2022/01/09 02:19:30;;;;;;;66.75;31.92;;;;;;;-4.26;93.70;99739.06;5076815;28;20059;-66
2022/01/09 02:21:56;;;;;;;70.45;33.10;;;;;;;-4.14;94.60;99758.69;5076374;28;20066;-66
2022/01/09 02:24:23;;;;;;;70.18;34.35;;;;;;;-4.13;94.29;99753.41;5058175;28;20032;-66
2022/01/09 02:26:50;;;;;;;66.07;31.30;;;;;;;-4.10;94.63;99755.06;5077353;28;20016;-66
2022/01/09 02:29:16;;;;;;;63.58;31.13;;;;;;;-4.16;94.00;99750.91;5076543;28;20396;-66
2022/01/09 02:31:42;;;;;;;67.32;31.73;;;;;;;-4.13;93.89;99750.78;5075869;28;20550;-66
2022/01/09 02:34:08;;;;;;;63.15;31.65;;;;;;;-4.28;93.36;99727.81;5076743;28;20025;-66
2022/01/09 02:36:39;;;;;;;60.97;31.15;;;;;;;-4.19;93.43;99740.56;5062588;28;20090;-66
2022/01/09 02:39:05;;;;;;;63.83;30.63;;;;;;;-4.26;93.02;99733.00;5071392;28;20032;-66
2022/01/09 02:41:30;;;;;;;61.33;31.02;;;;;;;-4.18;93.17;99747.50;5080637;28;20036;-67
2022/01/09 02:43:56;;;;;;;63.25;31.48;;;;;;;-4.27;93.41;99724.28;5078414;28;20028;-66
2022/01/09 02:49:27;;;;;;;57.22;28.83;;;;;;;-4.31;93.34;99706.13;5024625;28;20401;-66
2022/01/09 02:51:53;;;;;;;57.97;30.08;;;;;;;-4.30;92.50;99703.47;5022802;28;20056;-66
2022/01/09 02:57:04;;;;;;;59.45;31.20;;;;;;;-4.37;92.74;99708.97;5075509;28;20368;-66
2022/01/09 02:59:30;;;;;;;53.80;26.95;;;;;;;-4.45;92.70;99701.41;5062482;28;20046;-66
2022/01/09 03:01:55;;;;;;;61.95;30.30;;;;;;;-4.43;92.93;99699.59;5076769;28;20024;-66
2022/01/09 03:04:23;;;;;;;58.17;29.52;;;;;;;-4.36;92.86;99716.78;5075872;28;20028;-66
2022/01/09 03:06:52;;;;;;;59.75;29.73;;;;;;;-4.51;92.84;99691.19;5077593;28;20020;-66
2022/01/09 03:09:18;;;;;;;54.50;27.70;;;;;;;-4.47;93.42;99695.41;5077336;28;20055;-66
2022/01/09 03:11:45;;;;;;;59.53;28.20;;;;;;;-4.48;93.55;99690.22;5076112;28;20028;-66
2022/01/09 03:14:10;;;;;;;53.83;27.27;;;;;;;-4.49;94.10;99689.38;5074413;28;20037;-66
2022/01/09 03:16:36;;;;;;;57.17;28.33;;;;;;;-4.48;94.57;99693.72;5074205;28;20024;-66
2022/01/09 03:19:02;;;;;;;59.38;28.85;;;;;;;-4.46;94.23;99694.47;5077617;28;20020;-66
2022/01/09 03:21:27;;;;;;;59.47;29.13;;;;;;;-4.53;95.23;99685.16;5075199;28;20043;-66
2022/01/09 03:23:53;;;;;;;63.47;31.48;;;;;;;-4.54;95.33;99680.00;5074648;28;20020;-66
2022/01/09 03:26:18;;;;;;;65.45;29.83;;;;;;;-4.51;94.77;99695.56;5077592;28;20020;-66
2022/01/09 03:28:44;;;;;;;55.63;28.60;;;;;;;-4.53;94.12;99693.00;5074627;28;20061;-67
2022/01/09 03:31:09;;;;;;;59.83;28.48;;;;;;;-4.55;93.36;99700.06;5074919;28;20035;-66
2022/01/09 03:33:35;;;;;;;65.30;29.73;;;;;;;-4.72;93.08;99671.91;5075020;28;20040;-66
2022/01/09 03:36:00;;;;;;;55.67;29.17;;;;;;;-4.65;93.00;99693.44;5077392;28;20046;-66
2022/01/09 03:38:25;;;;;;;57.42;28.98;;;;;;;-4.67;92.21;99690.06;5078179;28;20515;-66
2022/01/09 03:40:51;;;;;;;58.92;29.15;;;;;;;-4.70;91.89;99693.63;5075686;28;20496;-66
2022/01/09 03:43:17;;;;;;;57.45;28.92;;;;;;;-4.70;91.50;99695.41;5073765;28;20039;-66
2022/01/09 03:45:43;;;;;;;57.53;27.58;;;;;;;-4.71;90.70;99698.91;5077794;28;20028;-66
2022/01/09 03:48:09;;;;;;;56.88;27.48;;;;;;;-4.74;89.73;99694.66;5078198;28;20055;-66
2022/01/09 03:50:34;;;;;;;54.20;28.23;;;;;;;-4.89;89.43;99684.75;5073362;28;20799;-66
2022/01/09 03:53:00;;;;;;;56.95;28.63;;;;;;;-4.81;89.78;99692.31;5062317;28;20032;-66
2022/01/09 03:55:26;;;;;;;53.00;27.40;;;;;;;-4.97;89.80;99675.47;5077382;28;20618;-66
2022/01/09 03:57:51;;;;;;;55.45;29.27;;;;;;;-4.94;88.66;99697.13;5075177;28;20028;-66
2022/01/09 04:00:20;;;;;;;56.92;28.70;;;;;;;-5.00;88.66;99691.28;5076209;28;20032;-66
2022/01/09 04:02:48;;;;;;;52.70;27.85;;;;;;;-5.03;88.51;99697.44;5075285;28;20055;-66
2022/01/09 04:05:14;;;;;;;55.50;27.35;;;;;;;-5.01;87.03;99705.25;5073685;28;20593;-66
2022/01/09 04:07:39;;;;;;;51.30;26.02;;;;;;;-5.15;86.15;99686.56;5075659;28;20032;-66
2022/01/09 04:10:06;;;;;;;50.58;25.67;;;;;;;-5.10;85.05;99695.97;5062182;28;20028;-66
2022/01/09 04:12:47;;;;;;;55.53;28.02;;;;;;;-5.23;84.37;99681.63;5074607;28;20492;-66
2022/01/09 04:15:14;;;;;;;46.05;25.02;;;;;;;-5.27;84.15;99680.03;5062382;28;20561;-66
2022/01/09 04:18:13;;;;;;;49.20;24.85;;;;;;;-5.20;84.03;99699.81;5055668;28;20040;-66
2022/01/09 04:20:32;;;;;;;50.50;24.60;;;;;;;-5.21;83.44;99705.09;5074033;28;20827;-66
2022/01/09 04:22:59;;;;;;;59.03;27.35;;;;;;;-5.21;82.91;99702.47;5055428;28;20557;-66
2022/01/09 04:25:26;;;;;;;46.33;24.80;;;;;;;-5.30;82.02;99687.97;5076423;28;20028;-66
2022/01/09 04:27:52;;;;;;;55.15;26.77;;;;;;;-5.30;81.95;99695.81;5077817;28;20028;-66
2022/01/09 04:30:18;;;;;;;53.53;25.60;;;;;;;-5.31;81.08;99695.84;5075722;28;20040;-66
2022/01/09 04:32:44;;;;;;;52.90;26.42;;;;;;;-5.34;80.17;99691.59;5064891;28;20059;-66
2022/01/09 04:35:10;;;;;;;52.55;25.90;;;;;;;-5.38;79.50;99694.34;5080907;28;20055;-66
2022/01/09 04:37:37;;;;;;;46.75;23.65;;;;;;;-5.42;79.18;99687.53;5077251;28;20375;-66
2022/01/09 04:40:05;;;;;;;52.50;25.60;;;;;;;-5.44;79.05;99681.50;5070646;28;20089;-66
2022/01/09 04:42:39;;;;;;;50.45;25.38;;;;;;;-5.49;78.66;99679.03;5054254;28;20532;-69
2022/01/09 04:45:07;;;;;;;49.45;24.73;;;;;;;-5.70;78.84;99653.66;5077854;28;20032;-69
2022/01/09 04:47:32;;;;;;;53.53;24.38;;;;;;;-5.66;79.53;99665.69;5065441;28;20373;-69
2022/01/09 04:49:59;;;;;;;52.10;26.73;;;;;;;-5.72;80.05;99667.63;5074632;28;20035;-69
2022/01/09 04:52:30;;;;;;;49.42;24.55;;;;;;;-5.78;81.11;99666.09;5077381;28;20048;-69
2022/01/09 04:54:55;;;;;;;52.55;25.92;;;;;;;-5.77;81.90;99670.41;5072867;28;20024;-69
2022/01/09 04:57:21;;;;;;;51.42;25.70;;;;;;;-5.82;83.14;99659.31;5081058;28;20022;-69
2022/01/09 04:59:46;;;;;;;55.05;27.27;;;;;;;-5.84;83.82;99658.50;5075528;28;20030;-69
2022/01/09 05:02:12;;;;;;;52.40;26.08;;;;;;;-5.79;84.59;99664.41;5077492;28;20109;-69
2022/01/09 05:04:37;;;;;;;54.97;25.95;;;;;;;-5.83;85.30;99651.53;5077633;28;20023;-69
2022/01/09 05:07:03;;;;;;;57.50;27.05;;;;;;;-5.81;85.37;99655.75;5063859;28;20069;-69
2022/01/09 05:09:29;;;;;;;62.53;26.80;;;;;;;-5.86;84.60;99638.56;5078438;28;20134;-69
2022/01/09 05:11:54;;;;;;;53.50;25.33;;;;;;;-5.85;83.55;99648.09;5078491;28;20380;-69
2022/01/09 05:14:20;;;;;;;56.17;27.77;;;;;;;-5.85;83.59;99635.91;5080542;28;20554;-69
2022/01/09 05:16:46;;;;;;;56.88;25.88;;;;;;;-5.83;82.53;99643.69;5079639;28;20031;-69
2022/01/09 05:19:18;;;;;;;57.47;25.80;;;;;;;-5.89;82.26;99630.84;5074843;28;20931;-69
2022/01/09 05:21:45;;;;;;;53.65;26.58;;;;;;;-5.87;81.11;99637.69;5062814;28;20024;-70
2022/01/09 05:24:11;;;;;;;58.35;27.73;;;;;;;-5.94;80.57;99627.53;5076790;28;20035;-70
2022/01/09 05:26:37;;;;;;;61.97;28.83;;;;;;;-5.94;79.10;99645.81;5077820;28;20036;-69
2022/01/09 05:29:02;;;;;;;53.55;26.75;;;;;;;-6.00;78.48;99640.78;5075532;28;20052;-70
2022/01/09 05:31:28;;;;;;;57.28;27.02;;;;;;;-6.16;78.98;99616.09;5083062;28;20647;-70
2022/01/09 05:33:53;;;;;;;58.90;27.00;;;;;;;-6.07;78.96;99639.25;5076615;28;20030;-69
2022/01/09 05:36:19;;;;;;;62.22;26.40;;;;;;;-6.07;78.63;99641.84;5075802;28;20027;-66
2022/01/09 05:38:44;;;;;;;62.15;27.55;;;;;;;-6.17;78.88;99628.25;5063000;28;20024;-66
2022/01/09 05:41:10;;;;;;;54.00;26.10;;;;;;;-6.20;79.11;99633.56;5080112;28;20094;-66
2022/01/09 05:43:36;;;;;;;68.03;28.40;;;;;;;-6.25;79.72;99635.50;5059680;28;20040;-66
2022/01/09 05:46:04;;;;;;;60.03;27.65;;;;;;;-6.28;80.80;99632.97;5073493;28;20024;-66
2022/01/09 05:48:29;;;;;;;61.58;26.98;;;;;;;-6.27;81.79;99637.28;5072195;28;20049;-66
2022/01/09 05:50:57;;;;;;;57.13;27.27;;;;;;;-6.33;81.72;99637.47;5073448;28;20056;-66
2022/01/09 05:53:25;;;;;;;68.80;29.88;;;;;;;-6.33;80.50;99641.81;5075935;28;20047;-66
2022/01/09 05:55:50;;;;;;;63.58;28.70;;;;;;;-6.34;79.70;99647.94;5072034;28;20048;-66
2022/01/09 05:58:16;;;;;;;61.03;28.33;;;;;;;-6.37;78.32;99642.81;5073330;28;20056;-66
2022/01/09 06:00:42;;;;;;;61.22;28.35;;;;;;;-6.41;77.44;99644.69;5073091;28;20043;-66
2022/01/09 06:03:07;;;;;;;66.00;27.20;;;;;;;-6.45;77.03;99645.66;5071637;28;20082;-66
2022/01/09 06:05:33;;;;;;;66.07;27.33;;;;;;;-6.47;76.50;99649.22;5075288;28;20067;-66
2022/01/09 06:07:58;;;;;;;61.55;27.52;;;;;;;-6.56;75.58;99644.28;5074335;28;20027;-66
2022/01/09 06:10:24;;;;;;;62.92;26.75;;;;;;;-6.55;75.44;99653.84;5073611;28;20032;-66
2022/01/09 06:12:49;;;;;;;61.55;28.08;;;;;;;-6.56;75.46;99649.50;5072168;28;20020;-66
2022/01/09 06:15:17;;;;;;;60.80;29.30;;;;;;;-6.62;75.74;99650.53;5064121;28;20045;-65
2022/01/09 06:17:44;;;;;;;63.92;29.45;;;;;;;-6.71;76.25;99647.38;5077392;28;20491;-66
2022/01/09 06:20:11;;;;;;;60.58;28.73;;;;;;;-6.72;76.88;99653.44;5068836;28;20040;-66
2022/01/09 06:22:38;;;;;;;65.70;29.90;;;;;;;-6.73;77.76;99657.84;5073668;28;20475;-66
2022/01/09 06:25:04;;;;;;;67.22;28.98;;;;;;;-6.76;78.91;99649.22;5062073;28;20028;-66
2022/01/09 06:27:30;;;;;;;62.20;29.92;;;;;;;-6.78;79.51;99643.22;5056373;28;20085;-66
2022/01/09 06:29:55;;;;;;;78.93;32.33;;;;;;;-6.79;79.76;99629.34;5076485;28;20036;-66
2022/01/09 06:32:21;;;;;;;64.25;29.98;;;;;;;-6.75;79.94;99637.94;5065830;28;20042;-66
2022/01/09 06:34:46;;;;;;;63.72;29.70;;;;;;;-6.77;79.45;99642.31;5062438;28;20047;-66
2022/01/09 06:37:12;;;;;;;78.32;36.15;;;;;;;-6.92;78.40;99616.69;5077090;28;20127;-66
2022/01/09 06:39:39;;;;;;;132.75;62.95;;;;;;;-6.82;78.23;99638.97;5076180;28;20051;-66
2022/01/09 06:42:04;;;;;;;137.70;64.00;;;;;;;-6.85;78.40;99637.31;5078504;28;20433;-66
2022/01/09 06:44:30;;;;;;;125.38;60.40;;;;;;;-6.88;78.00;99634.81;5077334;28;20090;-66
2022/01/09 06:46:55;;;;;;;121.55;54.67;;;;;;;-6.86;77.88;99645.19;5079006;28;20047;-66
2022/01/09 06:49:21;;;;;;;115.43;52.50;;;;;;;-6.88;77.71;99632.19;5068725;28;20383;-65
2022/01/09 06:51:46;;;;;;;102.88;49.70;;;;;;;-6.88;78.12;99624.38;5062436;28;20044;-66
2022/01/09 06:54:13;;;;;;;133.05;57.70;;;;;;;-6.91;78.52;99616.66;5077737;28;20039;-66
2022/01/09 06:56:39;;;;;;;123.40;54.80;;;;;;;-6.88;78.30;99636.56;5075012;28;20032;-66
2022/01/09 06:59:05;;;;;;;113.10;52.00;;;;;;;-6.94;78.53;99642.78;5077618;28;20031;-66
2022/01/09 07:01:30;;;;;;;80.90;40.17;;;;;;;-6.89;79.95;99643.53;5077583;28;20033;-66
2022/01/09 07:03:56;;;;;;;75.78;35.15;;;;;;;-6.81;81.86;99641.53;5076550;28;20422;-66
2022/01/09 07:06:21;;;;;;;72.30;34.15;;;;;;;-6.77;85.77;99624.94;5069557;28;20021;-66
2022/01/09 07:08:46;;;;;;;77.97;37.92;;;;;;;-6.64;88.63;99628.91;5062884;28;20024;-66
2022/01/09 07:11:12;;;;;;;74.00;36.03;;;;;;;-6.55;90.83;99635.59;5076422;28;20032;-66
2022/01/09 07:13:37;;;;;;;79.97;37.20;;;;;;;-6.46;91.84;99648.31;5082037;28;20117;-66
2022/01/09 07:16:03;;;;;;;79.63;35.95;;;;;;;-6.43;91.93;99651.69;5077385;28;20036;-67
2022/01/09 07:18:31;;;;;;;77.88;36.90;;;;;;;-6.43;91.26;99629.97;5076366;28;20042;-66
2022/01/09 07:21:03;;;;;;;71.00;34.25;;;;;;;-6.28;91.06;99640.81;5073499;28;20036;-66
2022/01/09 07:23:31;;;;;;;64.15;33.22;;;;;;;-6.18;91.26;99651.78;5075709;28;20035;-66
2022/01/09 07:25:59;;;;;;;70.38;34.92;;;;;;;-6.16;91.96;99626.53;5071323;28;20676;-66
2022/01/09 07:28:24;;;;;;;71.45;34.30;;;;;;;-6.12;93.13;99615.06;5072024;28;20040;-66
2022/01/09 07:30:50;;;;;;;75.03;35.78;;;;;;;-6.05;92.78;99614.84;5071603;28;20105;-66
2022/01/09 07:33:15;;;;;;;68.75;35.20;;;;;;;-5.93;93.36;99622.25;5078045;28;20030;-67
2022/01/09 07:35:41;;;;;;;73.43;36.88;;;;;;;-5.86;92.61;99615.06;5077507;28;20140;-66
2022/01/09 07:38:06;;;;;;;75.43;35.83;;;;;;;-5.83;92.60;99621.06;5077013;28;20043;-66
2022/01/09 07:40:32;;;;;;;70.97;34.45;;;;;;;-5.75;92.30;99634.66;5080575;28;20098;-67
2022/01/09 07:42:58;;;;;;;69.38;32.88;;;;;;;-5.79;92.50;99620.00;5075059;28;20020;-66
2022/01/09 07:45:26;;;;;;;69.68;32.75;;;;;;;-5.70;93.15;99624.06;5059141;28;20032;-66
2022/01/09 07:47:56;;;;;;;64.32;32.67;;;;;;;-5.66;93.16;99623.91;5070753;28;20459;-66
2022/01/09 07:50:22;;;;;;;74.18;34.03;;;;;;;-5.64;93.52;99629.91;5079315;28;20023;-66
2022/01/09 07:52:48;;;;;;;69.60;35.17;;;;;;;-5.60;93.56;99628.06;5072082;28;20444;-66
2022/01/09 07:55:14;;;;;;;72.05;34.13;;;;;;;-5.61;93.73;99613.31;5080514;28;20066;-66
2022/01/09 07:57:40;;;;;;;68.53;34.97;;;;;;;-5.42;94.19;99636.13;5081550;28;20058;-66
2022/01/09 08:00:10;;;;;;;79.75;37.97;;;;;;;-5.34;94.52;99646.31;5082434;28;20460;-66
2022/01/09 08:02:35;;;;;;;80.45;39.92;;;;;;;-5.29;94.08;99650.47;5077156;28;20527;-66
2022/01/09 08:05:01;;;;;;;88.60;41.00;;;;;;;-5.28;93.87;99628.69;5079880;28;20059;-66
2022/01/09 08:07:27;;;;;;;76.63;36.85;;;;;;;-5.20;93.50;99626.63;5072725;28;20044;-66
2022/01/09 08:09:52;;;;;;;81.25;37.55;;;;;;;-5.12;94.05;99626.38;5079509;28;20028;-66
2022/01/09 08:12:18;;;;;;;78.72;36.75;;;;;;;-5.08;93.99;99615.75;5078485;28;20483;-66
2022/01/09 08:14:47;;;;;;;71.25;34.22;;;;;;;-5.00;94.17;99621.53;5073262;28;20399;-66
2022/01/09 08:17:13;;;;;;;74.57;34.63;;;;;;;-4.94;94.55;99616.09;5063367;28;20043;-66
2022/01/09 08:19:39;;;;;;;75.85;35.03;;;;;;;-4.90;94.39;99614.22;5068349;28;20039;-67
2022/01/09 08:22:06;;;;;;;74.30;34.03;;;;;;;-4.75;95.06;99622.34;5071615;28;20043;-66
2022/01/09 08:24:36;;;;;;;76.13;37.03;;;;;;;-4.70;94.63;99616.94;5070582;28;20034;-66
2022/01/09 08:27:02;;;;;;;75.15;35.92;;;;;;;-4.67;94.21;99630.75;5077523;28;20121;-67
2022/01/09 08:29:27;;;;;;;77.78;38.08;;;;;;;-4.59;94.10;99620.00;5051778;28;20067;-66
2022/01/09 08:31:53;;;;;;;75.75;37.88;;;;;;;-4.52;93.80;99631.09;5071396;28;20820;-66
2022/01/09 08:34:19;;;;;;;75.72;35.33;;;;;;;-4.48;93.32;99615.22;5077875;28;20180;-67
2022/01/09 08:36:44;;;;;;;77.00;34.03;;;;;;;-4.32;93.55;99633.78;5077073;28;20093;-66
2022/01/09 08:39:10;;;;;;;66.78;31.60;;;;;;;-4.20;93.09;99642.00;5077625;28;20044;-67
2022/01/09 08:41:36;;;;;;;65.60;29.10;;;;;;;-4.17;91.72;99644.50;5075698;28;20120;-66
2022/01/09 08:44:04;;;;;;;70.68;29.98;;;;;;;-4.16;91.83;99648.81;5078376;28;20108;-67
2022/01/09 08:46:31;;;;;;;73.88;30.92;;;;;;;-4.13;92.58;99650.47;5080715;28;20074;-66
2022/01/09 08:48:57;;;;;;;64.00;29.35;;;;;;;-4.09;92.82;99650.31;5068833;28;20543;-67
2022/01/09 08:51:23;;;;;;;78.70;32.95;;;;;;;-4.09;92.63;99641.59;5070916;28;20044;-67
2022/01/09 08:53:51;;;;;;;72.82;32.20;;;;;;;-4.12;92.64;99634.72;5075260;28;20545;-67
2022/01/09 08:56:28;;;;;;;72.97;34.03;;;;;;;-4.02;93.88;99641.28;5071639;28;20039;-66
2022/01/09 08:58:54;;;;;;;65.40;31.80;;;;;;;-3.97;94.02;99635.88;5061068;28;20116;-67
2022/01/09 09:01:19;;;;;;;77.00;33.78;;;;;;;-3.88;94.37;99638.09;5062156;28;20028;-67
2022/01/09 09:03:45;;;;;;;70.65;33.28;;;;;;;-3.81;94.78;99648.25;5072438;28;20025;-66
2022/01/09 09:06:13;;;;;;;71.97;33.47;;;;;;;-3.75;94.90;99640.16;5073436;28;20051;-67
2022/01/09 09:08:39;;;;;;;74.82;34.47;;;;;;;-3.65;95.42;99638.84;5063546;28;20492;-67
2022/01/09 09:11:12;;;;;;;68.90;29.60;;;;;;;-3.62;96.17;99630.88;5072684;28;20067;-68
2022/01/09 09:13:38;;;;;;;66.82;30.27;;;;;;;-3.53;95.99;99633.13;5076149;28;20024;-68
2022/01/09 09:16:05;;;;;;;66.45;31.75;;;;;;;-3.43;96.27;99623.94;5074029;28;20039;-68
2022/01/09 09:18:31;;;;;;;63.92;29.13;;;;;;;-3.38;95.92;99631.63;5066128;28;20066;-67
2022/01/09 09:20:57;;;;;;;61.50;30.35;;;;;;;-3.29;96.53;99623.38;5075849;28;20028;-67
2022/01/09 09:23:23;;;;;;;64.05;29.95;;;;;;;-3.31;96.29;99610.31;5074686;28;20027;-67
2022/01/09 09:25:51;;;;;;;64.78;34.05;;;;;;;-3.15;96.10;99619.22;5077607;28;20047;-67
2022/01/09 09:28:17;;;;;;;72.18;33.78;;;;;;;-3.08;96.03;99625.03;5064427;28;20443;-67
2022/01/09 09:30:43;;;;;;;72.45;33.42;;;;;;;-3.02;96.77;99609.03;5073686;28;20074;-68
2022/01/09 09:33:09;;;;;;;74.57;36.05;;;;;;;-2.93;96.81;99606.00;5070922;28;20025;-68
2022/01/09 09:35:36;;;;;;;81.45;37.85;;;;;;;-2.88;96.38;99602.25;5062562;28;20503;-67
2022/01/09 09:38:03;;;;;;;108.35;45.70;;;;;;;-2.76;96.16;99604.34;5076865;28;20028;-67
2022/01/09 09:40:28;;;;;;;108.18;47.05;;;;;;;-2.71;96.39;99591.84;5055230;28;21925;-67
2022/01/09 09:42:54;;;;;;;303.73;113.40;;;;;;;-2.56;96.18;99606.91;5076560;28;20033;-67
2022/01/09 09:45:20;;;;;;;107.30;48.50;;;;;;;-2.48;95.75;99607.38;5070136;28;20032;-66
2022/01/09 09:47:46;;;;;;;116.45;56.90;;;;;;;-2.33;94.71;99618.09;5060327;28;20027;-66
2022/01/09 09:50:14;;;;;;;96.70;49.42;;;;;;;-2.30;94.39;99610.09;5074076;28;20099;-66
2022/01/09 09:52:41;;;;;;;88.25;49.80;;;;;;;-2.17;94.23;99614.66;5074189;28;20166;-66
2022/01/09 09:55:07;;;;;;;88.32;44.47;;;;;;;-2.03;93.66;99628.00;5074494;28;20487;-66
2022/01/09 09:57:32;;;;;;;83.38;40.20;;;;;;;-1.97;93.47;99614.53;5075856;28;20127;-67
2022/01/09 10:00:13;;;;;;;81.00;39.10;;;;;;;-1.85;93.37;99600.81;5073485;28;20539;-66
2022/01/09 10:02:50;;;;;;;87.20;38.72;;;;;;;-1.74;93.59;99605.56;5076031;28;20043;-66
2022/01/09 10:05:26;;;;;;;83.68;36.88;;;;;;;-1.60;93.36;99603.09;5078453;28;20094;-66
2022/01/09 10:07:53;;;;;;;73.07;36.42;;;;;;;-1.53;93.52;99610.59;5065409;28;20036;-66
2022/01/09 10:10:22;;;;;;;70.80;37.97;;;;;;;-1.54;92.80;99579.13;5079166;28;20035;-66
2022/01/09 10:12:48;;;;;;;72.22;36.60;;;;;;;-1.35;92.67;99604.38;5073412;28;20048;-65
2022/01/09 10:15:17;;;;;;;63.28;33.17;;;;;;;-1.28;92.47;99610.19;5079614;28;20039;-69
2022/01/09 10:17:45;;;;;;;62.95;32.45;;;;;;;-1.19;92.35;99607.09;5067116;28;20044;-69
2022/01/09 10:20:17;;;;;;;64.47;34.58;;;;;;;-1.14;92.60;99605.06;5079505;28;20059;-69
2022/01/09 10:22:47;;;;;;;63.22;33.22;;;;;;;-1.07;93.10;99602.03;5064598;28;20498;-69
2022/01/09 10:25:27;;;;;;;68.38;32.65;;;;;;;-0.98;93.23;99604.19;5066886;28;20024;-70
2022/01/09 10:28:06;;;;;;;64.18;33.38;;;;;;;-0.93;93.62;99593.44;5070672;28;20040;-70
2022/01/09 10:30:47;;;;;;;67.90;32.80;;;;;;;-0.89;93.90;99582.66;5078208;28;20028;-69
2022/01/09 10:33:16;;;;;;;68.68;33.92;;;;;;;-0.82;93.77;99580.53;5065655;28;20032;-70
2022/01/09 10:35:50;;;;;;;63.03;30.98;;;;;;;-0.77;93.47;99581.16;5071226;28;20031;-69
2022/01/09 10:38:16;;;;;;;58.20;30.45;;;;;;;-0.68;93.30;99580.66;5070207;28;20060;-69
2022/01/09 10:40:49;;;;;;;51.15;28.00;;;;;;;-0.70;93.08;99572.00;5075358;28;20036;-69
2022/01/09 10:43:18;;;;;;;52.45;29.52;;;;;;;-0.57;92.93;99588.81;5075374;28;20444;-69
2022/01/09 10:45:46;;;;;;;61.00;31.88;;;;;;;-0.47;93.36;99588.25;5069001;28;20028;-69
2022/01/09 10:48:18;;;;;;;52.72;30.75;;;;;;;-0.43;93.58;99583.63;5074190;28;20046;-69
2022/01/09 10:50:45;;;;;;;60.15;30.77;;;;;;;-0.34;93.45;99586.63;5073587;28;20053;-71
2022/01/09 10:53:22;;;;;;;59.08;30.77;;;;;;;-0.26;93.03;99594.94;5072689;28;20044;-70
2022/01/09 10:56:03;;;;;;;55.55;30.30;;;;;;;-0.19;92.98;99584.94;5063866;28;20476;-70
2022/01/09 10:58:29;;;;;;;59.45;30.98;;;;;;;-0.15;92.34;99576.78;5065010;28;20040;-71
2022/01/09 11:01:21;;;;;;;63.08;32.58;;;;;;;-0.05;92.61;99579.72;5077184;28;20029;-70
2022/01/09 11:04:00;;;;;;;60.40;31.40;;;;;;;-0.01;92.36;99571.56;5080189;28;20047;-70
2022/01/09 11:06:30;;;;;;;55.90;31.17;;;;;;;0.06;91.58;99569.41;5081272;28;20107;-70
2022/01/09 11:08:56;;;;;;;49.75;28.33;;;;;;;0.16;91.13;99570.56;5068537;28;20040;-66
2022/01/09 11:13:53;;;;;;;52.67;29.65;;;;;;;0.26;91.12;99571.78;5071478;28;20039;-67
2022/01/09 11:16:36;;;;;;;52.08;28.42;;;;;;;0.30;91.06;99572.41;5079344;28;20028;-66
2022/01/09 11:19:04;;;;;;;55.72;28.52;;;;;;;0.37;90.72;99576.41;5066115;28;20048;-66
2022/01/09 11:21:30;;;;;;;50.13;27.65;;;;;;;0.43;90.66;99573.41;5074081;28;20515;-66
2022/01/09 11:24:25;;;;;;;51.58;28.65;;;;;;;0.42;90.13;99553.25;5070137;28;20135;-66